Time;durP1;ratioP1;P1;durP2;ratioP2;P2;SDS_P1;SDS_P2;PMS_P1;PMS_P2;Temp;Humidity;BMP_temperature;BMP_pressure;BME280_temperature;BME280_humidity;BME280_pressure;Samples;Min_cycle;Max_cycle;Signal;HPM_P1;HPM_P2
2022/08/12 00:44:35;;;;;;;4.70;2.27;;;10.90;99.90;;;;;;4334667;28;657966;-64
2022/08/12 00:47:24;;;;;;;4.60;2.50;;;10.90;99.90;;;;;;4376042;28;659119;-63
2022/08/12 00:50:17;;;;;;;4.80;2.40;;;10.90;99.90;;;;;;4357374;28;657220;-63
2022/08/12 00:53:04;;;;;;;4.73;2.37;;;10.90;99.90;;;;;;4348712;28;658128;-63
2022/08/12 00:55:51;;;;;;;3.03;2.43;;;10.90;99.90;;;;;;4354474;28;658196;-63
2022/08/12 00:58:39;;;;;;;3.30;2.73;;;10.80;99.90;;;;;;4373700;28;657969;-63
2022/08/12 01:01:26;;;;;;;3.13;2.70;;;10.70;99.90;;;;;;4351758;28;657238;-63
2022/08/12 01:13:34;;;;;;;4.17;2.80;;;10.70;99.90;;;;;;4346269;28;658226;-63
2022/08/12 01:16:22;;;;;;;4.97;3.20;;;10.70;99.90;;;;;;4357851;28;657980;-63
2022/08/12 01:19:11;;;;;;;4.30;2.80;;;10.60;99.90;;;;;;4369841;28;657850;-64
2022/08/12 01:22:23;;;;;;;4.50;2.47;;;10.60;99.90;;;;;;4374708;28;658634;-64
2022/08/12 01:25:13;;;;;;;5.73;2.50;;;10.60;99.90;;;;;;4335961;28;657958;-63
2022/08/12 01:28:00;;;;;;;4.50;2.50;;;10.70;99.90;;;;;;4354041;28;657606;-64
2022/08/12 01:30:49;;;;;;;3.93;2.50;;;10.70;99.90;;;;;;4372306;28;658489;-63
2022/08/12 01:33:39;;;;;;;2.73;2.40;;;10.70;99.90;;;;;;4358534;28;658086;-63
2022/08/12 01:36:27;;;;;;;4.17;2.60;;;10.70;99.90;;;;;;4356487;28;657806;-63
2022/08/12 01:39:15;;;;;;;5.80;2.50;;;10.80;99.90;;;;;;4378102;28;657310;-64
2022/08/12 01:42:05;;;;;;;6.80;3.07;;;10.70;99.90;;;;;;4347286;28;657967;-63
2022/08/12 01:44:53;;;;;;;4.33;2.73;;;10.70;99.90;;;;;;4353240;28;658168;-64
2022/08/12 01:47:52;;;;;;;4.20;2.70;;;10.70;99.90;;;;;;4351382;28;657571;-63
2022/08/12 01:50:47;;;;;;;3.10;2.80;;;10.70;99.90;;;;;;4356598;28;657319;-65
2022/08/12 01:53:46;;;;;;;3.53;2.60;;;10.90;99.90;;;;;;4352312;28;657839;-63
2022/08/12 01:56:42;;;;;;;4.33;2.63;;;10.90;99.90;;;;;;4349845;28;657760;-63
2022/08/12 01:59:46;;;;;;;5.00;3.10;;;10.90;99.90;;;;;;4352695;28;657932;-63
2022/08/12 02:02:38;;;;;;;6.47;3.03;;;10.90;99.90;;;;;;4346573;28;658224;-63
2022/08/12 02:11:49;;;;;;;6.00;3.00;;;10.90;99.90;;;;;;4339815;28;657831;-64
2022/08/12 02:14:45;;;;;;;5.57;2.90;;;10.90;99.90;;;;;;4356769;28;657571;-63
2022/08/12 02:17:45;;;;;;;4.53;2.90;;;10.90;99.90;;;;;;4324909;28;658084;-63
2022/08/12 02:20:38;;;;;;;10.27;2.90;;;10.90;99.90;;;;;;4342791;28;658126;-63
2022/08/12 02:23:26;;;;;;;4.53;2.90;;;10.90;99.90;;;;;;4344503;28;658644;-64
2022/08/12 02:26:14;;;;;;;7.07;2.90;;;11.00;99.90;;;;;;4377778;28;657868;-63
2022/08/12 02:29:01;;;;;;;4.43;3.20;;;11.00;99.90;;;;;;4351818;28;657263;-63
2022/08/12 02:31:51;;;;;;;3.07;2.60;;;11.00;99.90;;;;;;4376582;28;658680;-63
2022/08/12 02:34:38;;;;;;;3.57;3.27;;;10.90;99.90;;;;;;4347204;28;658400;-63
2022/08/12 02:37:26;;;;;;;4.60;3.60;;;10.90;99.90;;;;;;4364856;28;657820;-63
2022/08/12 02:40:14;;;;;;;5.73;3.30;;;10.90;99.90;;;;;;4384370;28;657976;-63
2022/08/12 02:43:04;;;;;;;6.77;3.30;;;11.00;99.90;;;;;;4352917;28;657850;-63
2022/08/12 02:45:53;;;;;;;10.57;3.50;;;11.00;99.90;;;;;;4361799;28;657582;-63
2022/08/12 02:48:45;;;;;;;4.60;3.83;;;11.00;99.90;;;;;;4360442;28;658275;-64
2022/08/12 02:51:34;;;;;;;4.47;3.75;;;11.10;99.90;;;;;;4355584;28;658691;-63
2022/08/12 02:54:21;;;;;;;6.47;3.47;;;11.20;99.90;;;;;;4344383;28;657596;-63
2022/08/12 02:57:08;;;;;;;12.97;4.03;;;11.10;99.90;;;;;;4377066;28;658925;-63
2022/08/12 02:59:55;;;;;;;5.63;3.43;;;11.20;99.90;;;;;;4358096;28;659265;-64
2022/08/12 03:02:44;;;;;;;8.53;3.93;;;11.20;99.90;;;;;;4371118;28;658895;-63
2022/08/12 03:05:34;;;;;;;8.75;4.45;;;11.20;99.90;;;;;;4360495;28;657847;-64
2022/08/12 03:08:24;;;;;;;7.83;5.20;;;11.30;99.90;;;;;;4358969;28;658312;-63
2022/08/12 03:11:15;;;;;;;6.23;4.47;;;11.40;99.90;;;;;;4356083;28;657719;-63
2022/08/12 03:14:02;;;;;;;16.53;5.63;;;11.50;99.90;;;;;;4349486;28;658244;-64
2022/08/12 03:16:51;;;;;;;6.73;5.30;;;11.60;99.90;;;;;;4368849;28;658915;-64
2022/08/12 03:19:38;;;;;;;7.70;6.23;;;11.70;99.90;;;;;;4343049;28;658769;-63
2022/08/12 03:22:27;;;;;;;7.70;6.17;;;11.80;99.90;;;;;;4364455;28;658273;-64
2022/08/12 03:25:16;;;;;;;9.00;5.30;;;11.80;99.90;;;;;;4374384;28;657435;-64
2022/08/12 03:28:04;;;;;;;11.47;5.73;;;11.90;99.90;;;;;;4342751;28;658146;-64
2022/08/12 03:30:52;;;;;;;9.77;6.40;;;11.80;99.90;;;;;;4354498;28;659106;-65
2022/08/12 03:33:42;;;;;;;9.60;7.13;;;11.80;99.90;;;;;;4375382;28;657822;-65
2022/08/12 03:36:30;;;;;;;12.27;6.87;;;12.00;99.90;;;;;;4345344;28;658246;-63
2022/08/12 03:39:26;;;;;;;11.70;7.37;;;12.00;99.90;;;;;;4340802;28;659388;-64
2022/08/12 03:42:20;;;;;;;12.97;7.10;;;12.20;99.90;;;;;;4354255;28;658484;-63
2022/08/12 04:00:44;;;;;;;11.83;5.70;;;12.20;99.90;;;;;;4318310;28;658165;-64
2022/08/12 04:06:44;;;;;;;8.67;6.23;;;12.20;99.90;;;;;;4322565;28;659482;-64
2022/08/12 04:09:31;;;;;;;10.63;5.63;;;12.20;99.90;;;;;;4331251;28;658702;-64
2022/08/12 04:15:24;;;;;;;10.23;6.27;;;12.40;99.90;;;;;;4350428;28;657825;-63
2022/08/12 04:18:12;;;;;;;11.13;6.40;;;12.50;99.90;;;;;;4353458;28;658358;-64
2022/08/12 04:21:01;;;;;;;7.83;6.47;;;12.50;99.90;;;;;;4365472;28;659169;-64
2022/08/12 04:23:48;;;;;;;8.80;6.63;;;12.50;99.90;;;;;;4344750;28;657932;-64
2022/08/12 04:26:35;;;;;;;11.53;7.20;;;12.60;99.90;;;;;;4350109;28;657414;-64
2022/08/12 04:29:25;;;;;;;9.97;6.53;;;12.70;99.90;;;;;;4371046;28;659479;-64
2022/08/12 04:32:12;;;;;;;10.87;6.53;;;12.80;99.90;;;;;;4351774;28;658162;-64
2022/08/12 04:35:00;;;;;;;12.37;6.57;;;12.90;99.90;;;;;;4375797;28;658521;-64
2022/08/12 04:37:47;;;;;;;8.53;6.30;;;13.00;99.90;;;;;;4357232;28;659499;-64
2022/08/12 04:40:35;;;;;;;10.47;5.87;;;13.20;99.90;;;;;;4363008;28;658060;-64
2022/08/12 04:43:24;;;;;;;9.27;6.70;;;13.20;99.90;;;;;;4349041;28;659149;-64
2022/08/12 04:46:12;;;;;;;11.13;6.67;;;13.30;99.90;;;;;;4359388;28;658637;-64
2022/08/12 04:49:01;;;;;;;7.67;5.87;;;13.40;99.90;;;;;;4373897;28;658855;-65
2022/08/12 04:51:48;;;;;;;9.77;6.00;;;13.50;99.90;;;;;;4379519;28;659389;-64
2022/08/12 04:54:36;;;;;;;9.23;6.43;;;13.60;99.90;;;;;;4354145;28;658018;-64
2022/08/12 04:57:23;;;;;;;9.63;6.17;;;13.70;99.90;;;;;;4389923;28;658321;-64
2022/08/12 05:00:12;;;;;;;12.73;6.30;;;13.80;99.90;;;;;;4347957;28;658403;-65
2022/08/12 05:03:00;;;;;;;13.00;6.40;;;13.90;99.90;;;;;;4381726;28;659258;-64
2022/08/12 05:05:48;;;;;;;10.50;6.60;;;14.00;99.90;;;;;;4361156;28;660299;-65
2022/08/12 05:08:35;;;;;;;12.47;6.90;;;14.10;99.90;;;;;;4368459;28;658522;-66
2022/08/12 05:11:23;;;;;;;12.60;6.67;;;14.30;99.90;;;;;;4378039;28;660216;-64
2022/08/12 05:14:10;;;;;;;9.40;7.30;;;14.40;99.90;;;;;;4361692;28;659532;-65
2022/08/12 05:16:59;;;;;;;10.33;7.20;;;14.70;99.90;;;;;;4373752;28;658983;-64
2022/08/12 05:19:47;;;;;;;10.07;6.60;;;14.80;99.90;;;;;;4351146;28;658907;-64
2022/08/12 05:22:34;;;;;;;9.53;7.00;;;15.10;99.90;;;;;;4374322;28;659330;-64
2022/08/12 05:25:21;;;;;;;10.07;7.67;;;15.30;99.90;;;;;;4355261;28;657914;-64
2022/08/12 05:28:09;;;;;;;13.80;8.63;;;15.50;99.90;;;;;;4379644;28;659617;-65
2022/08/12 05:30:56;;;;;;;9.27;6.93;;;15.60;99.90;;;;;;4352452;28;658933;-65
2022/08/12 05:33:44;;;;;;;12.93;6.33;;;15.80;99.90;;;;;;4375809;28;658792;-64
2022/08/12 05:36:33;;;;;;;7.37;6.10;;;15.90;99.90;;;;;;4351720;28;659359;-64
2022/08/12 05:39:20;;;;;;;9.43;6.20;;;16.10;99.90;;;;;;4360378;28;657487;-65
2022/08/12 05:42:08;;;;;;;14.60;7.27;;;16.20;99.90;;;;;;4372399;28;658659;-64
2022/08/12 05:44:55;;;;;;;8.50;6.13;;;16.40;99.90;;;;;;4374916;28;658689;-66
2022/08/12 05:47:42;;;;;;;16.20;5.75;;;16.50;99.90;;;;;;4379255;28;657541;-65
2022/08/12 05:50:30;;;;;;;6.57;5.17;;;16.60;99.90;;;;;;4372114;28;658125;-65
2022/08/12 05:53:19;;;;;;;7.93;5.70;;;16.80;99.90;;;;;;4380755;28;657783;-64
2022/08/12 05:56:06;;;;;;;10.07;5.20;;;17.00;99.90;;;;;;4348835;28;657613;-66
2022/08/12 05:58:54;;;;;;;10.73;5.17;;;17.10;99.90;;;;;;4363843;28;659356;-64
2022/08/12 06:01:41;;;;;;;9.23;5.43;;;17.20;99.90;;;;;;4343295;28;658661;-64
2022/08/12 06:04:31;;;;;;;8.90;5.80;;;17.30;99.90;;;;;;4379594;28;658213;-64
2022/08/12 06:07:18;;;;;;;8.70;5.50;;;17.40;99.90;;;;;;4357471;28;658435;-66
2022/08/12 06:10:07;;;;;;;7.90;5.38;;;17.50;99.90;;;;;;4366119;28;657913;-66
2022/08/12 06:12:57;;;;;;;9.27;6.00;;;17.70;99.90;;;;;;4368661;28;657592;-64
2022/08/12 06:15:44;;;;;;;13.85;5.57;;;17.80;99.90;;;;;;4346375;28;657929;-64
2022/08/12 06:18:31;;;;;;;8.07;5.40;;;17.90;99.90;;;;;;4350525;28;659280;-64
2022/08/12 06:21:20;;;;;;;10.03;5.63;;;17.90;99.90;;;;;;4387285;28;657534;-64
2022/08/12 06:24:07;;;;;;;9.55;5.57;;;18.00;99.90;;;;;;4348600;28;659346;-64
2022/08/12 06:26:58;;;;;;;9.47;5.17;;;18.20;99.90;;;;;;4372587;28;657729;-65
2022/08/12 06:29:45;;;;;;;8.27;5.70;;;18.30;99.90;;;;;;4352142;28;657781;-65
2022/08/12 06:32:32;;;;;;;6.63;5.30;;;18.40;99.90;;;;;;4373617;28;658321;-64
2022/08/12 06:35:20;;;;;;;8.13;5.20;;;18.60;99.90;;;;;;4383392;28;657778;-64
2022/08/12 06:38:14;;;;;;;8.27;5.00;;;18.80;99.90;;;;;;4382201;28;656944;-64
2022/08/12 06:44:19;;;;;;;8.87;5.50;;;18.90;99.90;;;;;;4317896;28;658079;-64
2022/08/12 06:47:06;;;;;;;9.90;5.13;;;19.00;99.90;;;;;;4346023;28;657671;-64
2022/08/12 06:49:53;;;;;;;6.67;5.33;;;19.20;99.90;;;;;;4384348;28;658518;-64
2022/08/12 06:52:40;;;;;;;8.73;5.30;;;19.30;99.90;;;;;;4353617;28;657737;-64
2022/08/12 06:55:28;;;;;;;9.13;5.50;;;19.50;99.90;;;;;;4378848;28;658368;-64
2022/08/12 06:58:16;;;;;;;9.50;5.40;;;19.60;99.90;;;;;;4359180;28;657585;-64
2022/08/12 07:01:05;;;;;;;9.60;5.83;;;19.70;99.90;;;;;;4383778;28;658486;-64
2022/08/12 07:03:52;;;;;;;9.83;5.87;;;19.80;99.90;;;;;;4352985;28;659293;-64
2022/08/12 07:06:39;;;;;;;7.80;5.10;;;19.80;99.90;;;;;;4379627;28;657759;-64
2022/08/12 07:09:27;;;;;;;7.70;5.53;;;20.00;99.90;;;;;;4357026;28;657491;-64
2022/08/12 07:12:18;;;;;;;7.83;4.93;;;20.10;99.90;;;;;;4382019;28;657643;-64
2022/08/12 07:15:06;;;;;;;11.27;5.37;;;20.30;99.90;;;;;;4339638;28;657285;-65
2022/08/12 07:17:59;;;;;;;10.07;5.10;;;20.50;99.90;;;;;;4374823;28;659321;-64
2022/08/12 07:20:47;;;;;;;10.13;4.97;;;20.60;99.90;;;;;;4340621;28;658820;-64
2022/08/12 07:23:37;;;;;;;8.93;5.00;;;20.80;99.90;;;;;;4373600;28;658584;-65
2022/08/12 07:26:24;;;;;;;8.47;4.80;;;21.00;99.90;;;;;;4388494;28;657826;-64
2022/08/12 07:29:13;;;;;;;6.80;4.97;;;21.20;99.90;;;;;;4357309;28;657565;-64
2022/08/12 07:32:02;;;;;;;6.80;4.70;;;21.10;99.90;;;;;;4354424;28;657769;-65
2022/08/12 07:34:51;;;;;;;7.97;4.00;;;20.80;99.90;;;;;;4376937;28;658202;-64
2022/08/12 07:37:40;;;;;;;7.73;4.03;;;20.80;99.90;;;;;;4354938;28;657764;-63
2022/08/12 07:40:28;;;;;;;9.13;4.53;;;21.10;99.90;;;;;;4358563;28;658389;-64
2022/08/12 07:43:15;;;;;;;4.97;4.10;;;21.10;99.90;;;;;;4362711;28;657777;-65
2022/08/12 07:46:04;;;;;;;6.47;3.80;;;21.60;99.90;;;;;;4375503;28;658681;-64
2022/08/12 07:48:52;;;;;;;4.10;3.40;;;21.90;99.90;;;;;;4350956;28;658019;-64
2022/08/12 07:51:41;;;;;;;8.53;3.70;;;22.00;99.90;;;;;;4372129;28;658184;-64
2022/08/12 07:54:28;;;;;;;4.23;3.67;;;22.20;99.90;;;;;;4360465;28;658814;-64
2022/08/12 07:57:15;;;;;;;4.70;3.60;;;22.40;99.90;;;;;;4355529;28;657576;-64
2022/08/12 08:00:05;;;;;;;3.90;3.17;;;22.40;99.90;;;;;;4382781;28;657989;-64
2022/08/12 08:02:53;;;;;;;3.50;3.20;;;22.60;99.90;;;;;;4354128;28;658772;-64
2022/08/12 08:05:45;;;;;;;5.50;3.40;;;22.50;99.90;;;;;;4351794;28;657722;-65
2022/08/12 08:08:33;;;;;;;4.63;3.50;;;22.30;99.90;;;;;;4351517;28;658194;-65
2022/08/12 08:14:27;;;;;;;6.40;4.13;;;22.30;99.90;;;;;;4352877;28;657684;-64
2022/08/12 08:17:16;;;;;;;7.17;4.40;;;22.40;99.90;;;;;;4364720;28;657485;-65
2022/08/12 08:20:03;;;;;;;5.20;4.03;;;22.70;99.90;;;;;;4383800;28;657578;-64
2022/08/12 08:22:50;;;;;;;7.47;3.87;;;23.00;99.90;;;;;;4344940;28;657374;-64
2022/08/12 08:25:40;;;;;;;7.30;4.60;;;23.40;99.90;;;;;;4371231;28;658522;-64
2022/08/12 08:28:27;;;;;;;8.73;4.10;;;23.00;99.90;;;;;;4358958;28;658651;-65
2022/08/12 08:31:14;;;;;;;4.10;3.70;;;23.30;99.90;;;;;;4376526;28;657555;-64
2022/08/12 08:34:01;;;;;;;5.97;3.97;;;23.60;99.90;;;;;;4357433;28;657710;-64
2022/08/12 08:36:48;;;;;;;3.73;3.00;;;23.50;99.90;;;;;;4374761;28;659138;-64
2022/08/12 08:39:36;;;;;;;5.70;2.83;;;23.50;99.90;;;;;;4357894;28;657437;-64
2022/08/12 08:42:38;;;;;;;8.63;3.20;;;23.40;99.90;;;;;;4375920;28;659070;-64
2022/08/12 08:45:27;;;;;;;4.47;3.13;;;23.00;99.90;;;;;;4326691;28;658377;-65
2022/08/12 08:48:15;;;;;;;3.80;2.70;;;23.10;99.90;;;;;;4369608;28;659111;-64
2022/08/12 08:51:04;;;;;;;5.77;3.93;;;23.40;99.90;;;;;;4360593;28;658641;-64
2022/08/12 08:53:52;;;;;;;7.10;3.77;;;23.50;99.90;;;;;;4338874;28;658120;-64
2022/08/12 08:56:48;;;;;;;6.63;3.47;;;23.30;99.90;;;;;;4347210;28;658212;-64
2022/08/12 08:59:37;;;;;;;5.07;4.20;;;23.00;99.90;;;;;;4333668;28;657841;-64
2022/08/12 09:02:24;;;;;;;8.07;4.50;;;22.90;99.90;;;;;;4368037;28;658020;-64
2022/08/12 09:05:11;;;;;;;8.53;4.10;;;22.70;99.90;;;;;;4354706;28;658147;-64
2022/08/12 09:08:00;;;;;;;6.87;4.20;;;22.50;99.90;;;;;;4377409;28;658667;-64
2022/08/12 09:10:47;;;;;;;7.57;4.30;;;22.30;99.90;;;;;;4342116;28;658763;-64
2022/08/12 09:13:36;;;;;;;5.73;2.87;;;22.40;99.90;;;;;;4376151;28;657998;-64
2022/08/12 09:16:24;;;;;;;9.40;2.73;;;23.30;99.90;;;;;;4348206;28;658946;-64
2022/08/12 09:19:13;;;;;;;6.77;3.20;;;23.30;99.90;;;;;;4352685;28;657263;-64
2022/08/12 09:22:00;;;;;;;4.70;2.80;;;23.30;99.90;;;;;;4360849;28;657812;-65
2022/08/12 09:24:48;;;;;;;4.67;2.83;;;23.10;99.90;;;;;;4375253;28;659186;-64
2022/08/12 09:27:36;;;;;;;2.70;2.50;;;23.10;99.90;;;;;;4357714;28;657691;-65
2022/08/12 09:30:23;;;;;;;4.97;2.80;;;23.60;99.90;;;;;;4379616;28;658612;-64
2022/08/12 09:33:12;;;;;;;6.43;2.60;;;23.60;99.90;;;;;;4362452;28;657852;-65
2022/08/12 09:35:59;;;;;;;4.00;2.80;;;23.40;99.90;;;;;;4372897;28;657422;-64
2022/08/12 09:38:46;;;;;;;3.30;2.87;;;23.60;99.90;;;;;;4355459;28;658156;-64
2022/08/12 09:41:38;;;;;;;3.90;2.70;;;23.90;99.90;;;;;;4368886;28;658312;-63
2022/08/12 09:47:30;;;;;;;4.43;3.10;;;23.90;99.90;;;;;;4376025;28;657689;-65
2022/08/12 09:50:19;;;;;;;7.27;3.63;;;24.30;99.90;;;;;;4389241;28;657777;-64
2022/08/12 09:53:08;;;;;;;7.73;3.63;;;24.80;99.90;;;;;;4358541;28;657931;-64
2022/08/12 09:55:56;;;;;;;5.97;3.50;;;25.10;99.90;;;;;;4358111;28;657824;-64
2022/08/12 09:58:45;;;;;;;6.88;3.60;;;25.50;99.70;;;;;;4376816;28;658928;-64
2022/08/12 10:01:32;;;;;;;6.75;3.33;;;25.10;97.90;;;;;;4345806;28;658522;-64
2022/08/12 10:04:19;;;;;;;5.18;3.60;;;24.50;98.00;;;;;;4374689;28;657210;-64
2022/08/12 10:07:08;;;;;;;3.50;3.20;;;24.10;98.60;;;;;;4357481;28;657234;-64
2022/08/12 10:09:55;;;;;;;4.90;3.60;;;24.60;98.70;;;;;;4355416;28;657564;-65
2022/08/12 10:15:47;;;;;;;6.72;4.10;;;24.90;96.50;;;;;;4336430;28;658667;-64
2022/08/12 10:18:36;;;;;;;8.13;4.00;;;24.40;97.60;;;;;;4378388;28;659012;-64
2022/08/12 10:21:24;;;;;;;4.80;4.07;;;24.00;97.60;;;;;;4361359;28;658574;-64
2022/08/12 10:24:14;;;;;;;5.93;4.10;;;24.60;99.90;;;;;;4357008;28;658082;-64
2022/08/12 10:30:07;;;;;;;5.50;4.20;;;26.00;96.00;;;;;;4318563;28;658709;-64
2022/08/12 10:32:57;;;;;;;7.47;4.03;;;26.20;93.70;;;;;;4376612;28;657506;-65
2022/08/12 10:35:44;;;;;;;7.07;3.92;;;26.20;93.20;;;;;;4354447;28;657913;-64
2022/08/12 10:38:31;;;;;;;6.32;3.75;;;26.30;92.90;;;;;;4350357;28;657447;-64
2022/08/12 10:44:26;;;;;;;5.15;3.88;;;26.80;92.60;;;;;;4348018;28;657698;-64
2022/08/12 10:47:15;;;;;;;6.85;3.55;;;27.20;91.00;;;;;;4353353;28;658209;-64
2022/08/12 10:50:04;;;;;;;5.85;3.10;;;27.40;81.60;;;;;;4361829;28;658115;-64
2022/08/12 10:52:51;;;;;;;5.25;3.50;;;27.80;81.20;;;;;;4347901;28;657573;-64
2022/08/12 10:55:38;;;;;;;5.68;3.58;;;27.80;79.70;;;;;;4366770;28;657792;-65
2022/08/12 10:58:27;;;;;;;4.55;3.50;;;27.60;76.70;;;;;;4350128;28;657750;-65
2022/08/12 11:01:14;;;;;;;5.50;3.50;;;26.60;79.70;;;;;;4373573;28;657256;-64
2022/08/12 11:04:02;;;;;;;4.65;3.38;;;26.70;83.80;;;;;;4352692;28;657762;-64
2022/08/12 11:06:52;;;;;;;7.60;3.10;;;27.80;84.20;;;;;;4376277;28;657011;-64
2022/08/12 11:09:40;;;;;;;5.05;3.40;;;28.30;78.80;;;;;;4345075;28;657922;-64
2022/08/12 11:12:28;;;;;;;5.18;3.20;;;27.50;78.00;;;;;;4362002;28;658770;-64
2022/08/12 11:15:19;;;;;;;5.00;2.88;;;28.00;79.00;;;;;;4348752;28;657471;-65
2022/08/12 11:18:06;;;;;;;4.47;2.78;;;28.60;74.30;;;;;;4341908;28;658036;-64
2022/08/12 11:20:54;;;;;;;4.15;3.10;;;28.70;70.80;;;;;;4370028;28;657958;-64
2022/08/12 11:23:41;;;;;;;6.63;2.90;;;29.00;71.70;;;;;;4344699;28;657347;-64
2022/08/12 11:26:28;;;;;;;3.95;3.00;;;29.30;71.30;;;;;;4368763;28;658344;-64
2022/08/12 11:29:15;;;;;;;5.75;2.88;;;29.40;70.90;;;;;;4358866;28;657711;-65
2022/08/12 11:32:04;;;;;;;7.05;2.80;;;29.60;70.10;;;;;;4382745;28;658204;-64
2022/08/12 11:34:51;;;;;;;4.43;2.53;;;29.10;68.20;;;;;;4355620;28;657451;-64
2022/08/12 11:37:39;;;;;;;3.13;2.47;;;29.30;65.00;;;;;;4368082;28;657377;-64
2022/08/12 11:40:26;;;;;;;2.50;2.30;;;29.00;67.50;;;;;;4353499;28;657915;-64
2022/08/12 11:43:13;;;;;;;2.90;2.60;;;28.50;64.90;;;;;;4384324;28;658444;-64
2022/08/12 11:46:00;;;;;;;5.20;2.50;;;28.10;66.70;;;;;;4350523;28;657782;-64
2022/08/12 11:48:49;;;;;;;3.15;2.65;;;28.30;67.40;;;;;;4382978;28;659122;-64
2022/08/12 11:51:36;;;;;;;7.93;2.53;;;28.30;68.20;;;;;;4348328;28;657609;-65
2022/08/12 11:54:23;;;;;;;2.20;2.00;;;28.50;70.60;;;;;;4368370;28;657901;-65
2022/08/12 11:57:11;;;;;;;3.08;2.20;;;28.70;66.50;;;;;;4353151;28;658113;-65
2022/08/12 11:59:58;;;;;;;2.50;2.20;;;29.00;64.30;;;;;;4376234;28;658638;-64
2022/08/12 12:02:45;;;;;;;5.95;2.08;;;28.90;68.30;;;;;;4365334;28;657592;-65
2022/08/12 12:05:34;;;;;;;3.17;2.50;;;29.40;65.00;;;;;;4374972;28;658128;-64
2022/08/12 12:08:21;;;;;;;2.30;2.10;;;29.50;63.40;;;;;;4356283;28;658205;-65
2022/08/12 12:11:08;;;;;;;4.40;2.10;;;29.30;61.90;;;;;;4375581;28;658412;-64
2022/08/12 12:13:55;;;;;;;5.00;1.92;;;29.60;62.00;;;;;;4354350;28;657568;-64
2022/08/12 12:16:42;;;;;;;3.13;1.80;;;29.70;60.90;;;;;;4376530;28;657655;-64
2022/08/12 12:19:29;;;;;;;9.45;1.98;;;29.80;60.30;;;;;;4370658;28;657862;-64
2022/08/12 12:22:18;;;;;;;5.63;2.08;;;30.00;59.30;;;;;;4352624;28;657820;-64
2022/08/12 12:25:06;;;;;;;3.10;2.50;;;30.30;61.00;;;;;;4350013;28;657457;-64
2022/08/12 12:27:55;;;;;;;3.00;2.00;;;30.20;58.30;;;;;;4369265;28;658238;-64
2022/08/12 12:30:42;;;;;;;4.28;2.13;;;30.30;59.60;;;;;;4358940;28;658311;-64
2022/08/12 12:33:29;;;;;;;5.45;2.03;;;30.10;58.80;;;;;;4372033;28;657443;-63
2022/08/12 12:36:16;;;;;;;4.30;2.40;;;30.00;56.50;;;;;;4347944;28;657312;-64
2022/08/12 12:39:05;;;;;;;2.65;2.13;;;30.10;58.70;;;;;;4371295;28;658438;-64
2022/08/12 12:41:52;;;;;;;2.13;1.92;;;30.10;59.70;;;;;;4351889;28;658903;-63
2022/08/12 12:44:39;;;;;;;7.43;2.13;;;30.10;60.10;;;;;;4376889;28;657564;-64
2022/08/12 12:47:26;;;;;;;2.22;1.92;;;30.30;59.30;;;;;;4356594;28;657771;-64
2022/08/12 12:50:13;;;;;;;2.20;2.00;;;30.50;59.70;;;;;;4364566;28;657997;-64
2022/08/12 12:53:00;;;;;;;4.85;2.20;;;30.00;56.20;;;;;;4350518;28;657542;-65
2022/08/12 12:55:49;;;;;;;6.10;2.20;;;29.90;58.10;;;;;;4374883;28;658718;-65
2022/08/12 12:58:36;;;;;;;3.88;2.53;;;30.20;57.10;;;;;;4357352;28;657666;-64
2022/08/12 13:01:24;;;;;;;6.03;2.10;;;30.80;58.30;;;;;;4374817;28;659664;-64
2022/08/12 13:04:11;;;;;;;3.38;2.22;;;30.50;54.80;;;;;;4361376;28;657862;-64
2022/08/12 13:06:58;;;;;;;2.15;1.90;;;30.70;56.40;;;;;;4362999;28;659004;-63
2022/08/12 13:09:45;;;;;;;5.13;2.30;;;30.60;57.50;;;;;;4350155;28;657983;-64
2022/08/12 13:12:34;;;;;;;5.80;2.47;;;30.60;57.30;;;;;;4376849;28;658400;-64
2022/08/12 13:15:21;;;;;;;6.22;2.33;;;31.00;57.60;;;;;;4352294;28;657955;-64
2022/08/12 13:18:08;;;;;;;2.25;2.00;;;30.40;55.70;;;;;;4373904;28;658948;-63
2022/08/12 13:20:56;;;;;;;7.15;2.70;;;30.50;54.80;;;;;;4367446;28;657947;-65
2022/08/12 13:23:45;;;;;;;3.78;2.25;;;30.20;56.00;;;;;;4376926;28;658923;-63
2022/08/12 13:26:33;;;;;;;4.75;2.40;;;30.00;55.30;;;;;;4355981;28;658724;-64
2022/08/12 13:29:21;;;;;;;3.13;2.65;;;30.50;56.80;;;;;;4353877;28;659068;-65
2022/08/12 13:32:09;;;;;;;4.05;2.30;;;31.20;54.80;;;;;;4369352;28;658203;-64
2022/08/12 13:34:56;;;;;;;2.55;2.00;;;30.60;55.50;;;;;;4347071;28;657394;-64
2022/08/12 13:37:43;;;;;;;4.72;2.33;;;30.60;55.00;;;;;;4376631;28;658320;-64
2022/08/12 13:40:31;;;;;;;5.45;2.60;;;31.00;54.40;;;;;;4357162;28;657489;-65
2022/08/12 13:43:18;;;;;;;3.38;2.40;;;30.80;54.70;;;;;;4376982;28;658413;-64
2022/08/12 13:46:08;;;;;;;3.67;2.05;;;30.30;56.60;;;;;;4352973;28;657768;-63
2022/08/12 13:48:55;;;;;;;6.80;2.38;;;30.00;55.10;;;;;;4357435;28;657781;-64
2022/08/12 13:51:49;;;;;;;2.50;2.30;;;29.80;55.50;;;;;;4368072;28;659613;-64
2022/08/12 13:54:36;;;;;;;2.55;2.10;;;30.10;54.40;;;;;;4355361;28;657866;-64
2022/08/12 13:57:25;;;;;;;6.18;2.40;;;30.00;55.50;;;;;;4365852;28;657908;-64
2022/08/12 14:00:13;;;;;;;4.20;2.90;;;29.80;55.10;;;;;;4349632;28;658270;-63
2022/08/12 14:03:01;;;;;;;5.30;2.60;;;30.00;54.40;;;;;;4358807;28;657291;-64
2022/08/12 14:05:49;;;;;;;3.50;2.60;;;29.70;54.80;;;;;;4374621;28;658349;-64
2022/08/12 14:08:36;;;;;;;3.28;2.33;;;29.90;56.00;;;;;;4352806;28;657612;-64
2022/08/12 14:11:23;;;;;;;5.57;2.58;;;29.70;56.60;;;;;;4375871;28;658252;-63
2022/08/12 14:14:10;;;;;;;2.42;1.98;;;29.60;55.40;;;;;;4353969;28;658317;-64
2022/08/12 14:17:01;;;;;;;4.72;2.35;;;29.60;56.50;;;;;;4375293;28;657638;-63
2022/08/12 14:22:58;;;;;;;3.45;1.80;;;30.20;54.20;;;;;;4343105;28;657561;-63
2022/08/12 14:25:46;;;;;;;2.20;1.80;;;30.30;52.50;;;;;;4338265;28;657912;-65
2022/08/12 14:28:35;;;;;;;2.67;2.10;;;30.10;51.30;;;;;;4383140;28;658064;-64
2022/08/12 14:31:22;;;;;;;2.83;2.00;;;30.20;51.20;;;;;;4352819;28;658673;-63
2022/08/12 14:34:10;;;;;;;3.00;1.90;;;30.10;52.30;;;;;;4367862;28;657691;-65
2022/08/12 14:37:01;;;;;;;2.03;1.83;;;30.30;51.90;;;;;;4382025;28;657178;-64
2022/08/12 14:39:49;;;;;;;2.00;1.77;;;30.60;51.70;;;;;;4358807;28;658381;-64
2022/08/12 14:42:37;;;;;;;3.17;1.77;;;30.60;49.80;;;;;;4355058;28;657731;-64
2022/08/12 14:45:24;;;;;;;3.50;1.73;;;30.50;49.60;;;;;;4374696;28;657257;-64
2022/08/12 14:48:11;;;;;;;3.23;1.83;;;30.40;49.30;;;;;;4348915;28;657862;-64
2022/08/12 14:50:59;;;;;;;3.58;1.88;;;30.40;49.70;;;;;;4374590;28;657203;-64
2022/08/12 14:53:49;;;;;;;4.18;1.70;;;30.10;49.90;;;;;;4361784;28;657671;-64
2022/08/12 14:56:36;;;;;;;4.25;1.90;;;30.30;51.10;;;;;;4352262;28;658212;-63
2022/08/12 15:02:28;;;;;;;2.63;2.33;;;30.20;51.10;;;;;;4348990;28;657714;-64
2022/08/12 15:05:15;;;;;;;3.92;2.78;;;30.40;50.80;;;;;;4358276;28;657740;-64
2022/08/12 15:08:06;;;;;;;2.92;2.30;;;30.30;50.30;;;;;;4376571;28;658397;-63
2022/08/12 15:10:54;;;;;;;3.85;2.60;;;30.20;50.90;;;;;;4357585;28;658168;-63
2022/08/12 15:13:44;;;;;;;4.20;2.38;;;30.00;51.90;;;;;;4352747;28;657115;-63
2022/08/12 15:16:31;;;;;;;3.80;2.38;;;30.30;52.10;;;;;;4349915;28;657831;-64
2022/08/12 15:19:18;;;;;;;3.58;2.67;;;30.20;53.10;;;;;;4373547;28;658103;-63
2022/08/12 15:22:06;;;;;;;5.07;2.70;;;30.30;53.30;;;;;;4351652;28;657488;-63
2022/08/12 15:24:53;;;;;;;3.95;2.22;;;30.40;52.10;;;;;;4377201;28;657520;-63
2022/08/12 15:27:43;;;;;;;3.10;2.70;;;30.20;51.90;;;;;;4344365;28;659984;-65
2022/08/12 15:30:30;;;;;;;2.80;2.60;;;30.50;51.90;;;;;;4345460;28;658221;-64
2022/08/12 15:33:18;;;;;;;5.25;2.60;;;31.10;52.60;;;;;;4355706;28;658405;-63
2022/08/12 15:36:07;;;;;;;3.08;2.50;;;31.30;50.20;;;;;;4350977;28;658091;-64
2022/08/12 15:38:54;;;;;;;5.72;2.45;;;33.10;49.50;;;;;;4354638;28;657570;-65
2022/08/12 15:41:43;;;;;;;3.22;2.92;;;35.70;46.00;;;;;;4350501;28;658657;-63
2022/08/12 15:44:31;;;;;;;4.25;2.70;;;37.10;43.20;;;;;;4356460;28;658543;-64
2022/08/12 15:47:19;;;;;;;3.00;2.75;;;37.60;41.30;;;;;;4371903;28;658490;-63
2022/08/12 15:50:07;;;;;;;6.05;3.30;;;37.90;40.70;;;;;;4351346;28;657749;-64
2022/08/12 15:52:55;;;;;;;4.43;2.90;;;39.20;39.00;;;;;;4368132;28;657319;-65
2022/08/12 15:55:42;;;;;;;4.63;3.40;;;40.10;38.00;;;;;;4348597;28;659095;-64
2022/08/12 15:58:29;;;;;;;7.35;4.10;;;40.70;36.50;;;;;;4371305;28;657578;-64
2022/08/12 16:01:18;;;;;;;16.37;8.23;;;40.80;36.70;;;;;;4346142;28;658780;-64
2022/08/12 16:04:05;;;;;;;6.10;3.97;;;41.20;35.60;;;;;;4343197;28;658473;-64
2022/08/12 16:06:52;;;;;;;7.23;3.90;;;40.90;35.40;;;;;;4372053;28;658409;-64
2022/08/12 16:09:39;;;;;;;11.10;6.40;;;41.20;35.10;;;;;;4374956;28;656838;-64